sensor_id;sensor_type;location;lat;lon;timestamp;P1;durP1;ratioP1;P2;durP2;ratioP2
74080;SDS011;62438;52.228;6.864;2023-03-23T00:01:41;11.23;;;4.45;;
74080;SDS011;62438;52.228;6.864;2023-03-23T00:03:41;10.98;;;4.13;;
74080;SDS011;62438;52.228;6.864;2023-03-23T00:05:42;14.07;;;4.10;;
74080;SDS011;62438;52.228;6.864;2023-03-23T00:07:49;9.05;;;3.88;;
74080;SDS011;62438;52.228;6.864;2023-03-23T00:09:52;10.40;;;3.47;;
74080;SDS011;62438;52.228;6.864;2023-03-23T00:11:53;11.93;;;3.95;;
74080;SDS011;62438;52.228;6.864;2023-03-23T00:13:57;12.35;;;3.75;;
74080;SDS011;62438;52.228;6.864;2023-03-23T00:16:02;14.65;;;4.53;;
74080;SDS011;62438;52.228;6.864;2023-03-23T00:18:02;8.65;;;3.25;;
74080;SDS011;62438;52.228;6.864;2023-03-23T00:20:05;10.05;;;3.58;;
74080;SDS011;62438;52.228;6.864;2023-03-23T00:22:06;12.88;;;3.83;;
74080;SDS011;62438;52.228;6.864;2023-03-23T00:26:11;8.65;;;3.45;;
74080;SDS011;62438;52.228;6.864;2023-03-23T00:28:12;9.48;;;3.10;;
74080;SDS011;62438;52.228;6.864;2023-03-23T00:30:14;7.82;;;2.83;;
74080;SDS011;62438;52.228;6.864;2023-03-23T00:32:14;8.50;;;3.25;;
74080;SDS011;62438;52.228;6.864;2023-03-23T00:34:17;9.68;;;3.22;;
74080;SDS011;62438;52.228;6.864;2023-03-23T00:36:19;8.45;;;3.13;;
74080;SDS011;62438;52.228;6.864;2023-03-23T00:38:23;10.55;;;3.63;;
74080;SDS011;62438;52.228;6.864;2023-03-23T00:40:24;7.65;;;2.92;;
74080;SDS011;62438;52.228;6.864;2023-03-23T00:42:26;10.68;;;3.28;;
74080;SDS011;62438;52.228;6.864;2023-03-23T00:44:29;7.88;;;3.25;;
74080;SDS011;62438;52.228;6.864;2023-03-23T00:46:30;9.35;;;2.95;;
74080;SDS011;62438;52.228;6.864;2023-03-23T00:48:30;9.68;;;2.92;;
74080;SDS011;62438;52.228;6.864;2023-03-23T00:50:32;8.75;;;2.80;;
74080;SDS011;62438;52.228;6.864;2023-03-23T00:52:33;10.07;;;3.17;;
74080;SDS011;62438;52.228;6.864;2023-03-23T00:54:33;7.95;;;2.70;;
74080;SDS011;62438;52.228;6.864;2023-03-23T00:56:34;10.82;;;3.03;;
74080;SDS011;62438;52.228;6.864;2023-03-23T00:58:35;9.13;;;2.65;;
74080;SDS011;62438;52.228;6.864;2023-03-23T01:00:36;7.95;;;3.00;;
74080;SDS011;62438;52.228;6.864;2023-03-23T01:02:37;8.57;;;3.00;;
74080;SDS011;62438;52.228;6.864;2023-03-23T01:04:40;8.90;;;3.00;;
74080;SDS011;62438;52.228;6.864;2023-03-23T01:06:44;9.15;;;2.67;;
74080;SDS011;62438;52.228;6.864;2023-03-23T01:08:50;8.82;;;2.42;;
74080;SDS011;62438;52.228;6.864;2023-03-23T01:10:50;8.68;;;3.20;;
74080;SDS011;62438;52.228;6.864;2023-03-23T01:12:51;8.57;;;2.60;;
74080;SDS011;62438;52.228;6.864;2023-03-23T01:14:52;9.95;;;2.80;;
74080;SDS011;62438;52.228;6.864;2023-03-23T01:16:52;9.88;;;2.70;;
74080;SDS011;62438;52.228;6.864;2023-03-23T01:18:53;10.20;;;2.60;;
74080;SDS011;62438;52.228;6.864;2023-03-23T01:20:53;10.55;;;2.92;;
74080;SDS011;62438;52.228;6.864;2023-03-23T01:22:54;6.25;;;2.28;;
74080;SDS011;62438;52.228;6.864;2023-03-23T01:25:00;7.95;;;2.72;;
74080;SDS011;62438;52.228;6.864;2023-03-23T01:27:00;7.88;;;2.78;;
74080;SDS011;62438;52.228;6.864;2023-03-23T01:29:06;10.07;;;2.95;;
74080;SDS011;62438;52.228;6.864;2023-03-23T01:31:08;6.68;;;2.50;;
74080;SDS011;62438;52.228;6.864;2023-03-23T01:33:11;7.32;;;2.72;;
74080;SDS011;62438;52.228;6.864;2023-03-23T01:35:12;8.85;;;2.33;;
74080;SDS011;62438;52.228;6.864;2023-03-23T01:37:13;8.68;;;3.30;;
74080;SDS011;62438;52.228;6.864;2023-03-23T01:39:15;9.88;;;2.45;;
74080;SDS011;62438;52.228;6.864;2023-03-23T01:41:16;7.28;;;2.45;;
74080;SDS011;62438;52.228;6.864;2023-03-23T01:43:18;8.20;;;2.58;;
74080;SDS011;62438;52.228;6.864;2023-03-23T01:47:19;9.38;;;2.78;;
74080;SDS011;62438;52.228;6.864;2023-03-23T01:49:24;10.15;;;2.97;;
74080;SDS011;62438;52.228;6.864;2023-03-23T01:51:27;6.32;;;2.20;;
74080;SDS011;62438;52.228;6.864;2023-03-23T01:53:29;7.63;;;2.75;;
74080;SDS011;62438;52.228;6.864;2023-03-23T01:55:34;10.77;;;2.90;;
74080;SDS011;62438;52.228;6.864;2023-03-23T01:57:38;8.68;;;2.78;;
74080;SDS011;62438;52.228;6.864;2023-03-23T01:59:39;8.48;;;2.60;;
74080;SDS011;62438;52.228;6.864;2023-03-23T02:01:46;6.10;;;2.65;;
74080;SDS011;62438;52.228;6.864;2023-03-23T02:03:46;10.10;;;2.72;;
74080;SDS011;62438;52.228;6.864;2023-03-23T02:05:51;6.47;;;2.35;;
74080;SDS011;62438;52.228;6.864;2023-03-23T02:07:52;10.30;;;2.75;;
74080;SDS011;62438;52.228;6.864;2023-03-23T02:09:53;8.20;;;2.83;;
74080;SDS011;62438;52.228;6.864;2023-03-23T02:11:54;7.63;;;2.72;;
74080;SDS011;62438;52.228;6.864;2023-03-23T02:13:55;8.65;;;3.03;;
74080;SDS011;62438;52.228;6.864;2023-03-23T02:18:19;9.30;;;2.53;;
74080;SDS011;62438;52.228;6.864;2023-03-23T02:25:11;8.05;;;2.65;;
74080;SDS011;62438;52.228;6.864;2023-03-23T02:32:04;10.48;;;2.70;;
74080;SDS011;62438;52.228;6.864;2023-03-23T02:36:37;10.05;;;2.90;;
74080;SDS011;62438;52.228;6.864;2023-03-23T02:38:56;6.90;;;2.25;;
74080;SDS011;62438;52.228;6.864;2023-03-23T02:40:59;8.07;;;2.70;;
74080;SDS011;62438;52.228;6.864;2023-03-23T02:43:01;7.40;;;2.35;;
74080;SDS011;62438;52.228;6.864;2023-03-23T02:45:07;8.52;;;2.22;;
74080;SDS011;62438;52.228;6.864;2023-03-23T02:47:15;8.73;;;2.47;;
74080;SDS011;62438;52.228;6.864;2023-03-23T02:49:23;8.35;;;2.60;;
74080;SDS011;62438;52.228;6.864;2023-03-23T02:51:26;7.65;;;3.00;;
74080;SDS011;62438;52.228;6.864;2023-03-23T02:53:28;7.28;;;2.53;;
74080;SDS011;62438;52.228;6.864;2023-03-23T02:55:30;7.70;;;2.80;;
74080;SDS011;62438;52.228;6.864;2023-03-23T02:57:32;7.28;;;2.67;;
74080;SDS011;62438;52.228;6.864;2023-03-23T02:59:32;7.05;;;2.90;;
74080;SDS011;62438;52.228;6.864;2023-03-23T03:03:35;7.55;;;2.45;;
74080;SDS011;62438;52.228;6.864;2023-03-23T03:10:27;7.80;;;3.13;;
74080;SDS011;62438;52.228;6.864;2023-03-23T03:14:57;8.18;;;2.90;;
74080;SDS011;62438;52.228;6.864;2023-03-23T03:17:28;8.60;;;3.10;;
74080;SDS011;62438;52.228;6.864;2023-03-23T03:19:29;8.75;;;2.78;;
74080;SDS011;62438;52.228;6.864;2023-03-23T03:21:37;9.63;;;3.60;;
74080;SDS011;62438;52.228;6.864;2023-03-23T03:23:43;7.00;;;2.75;;
74080;SDS011;62438;52.228;6.864;2023-03-23T03:25:45;7.93;;;2.88;;
74080;SDS011;62438;52.228;6.864;2023-03-23T03:27:50;8.98;;;3.00;;
74080;SDS011;62438;52.228;6.864;2023-03-23T03:29:53;8.35;;;3.10;;
74080;SDS011;62438;52.228;6.864;2023-03-23T03:31:59;6.90;;;2.85;;
74080;SDS011;62438;52.228;6.864;2023-03-23T03:34:04;8.13;;;3.10;;
74080;SDS011;62438;52.228;6.864;2023-03-23T03:36:05;7.78;;;2.90;;
74080;SDS011;62438;52.228;6.864;2023-03-23T03:38:09;6.25;;;2.50;;
74080;SDS011;62438;52.228;6.864;2023-03-23T03:40:12;8.63;;;3.45;;
74080;SDS011;62438;52.228;6.864;2023-03-23T03:42:15;7.88;;;3.03;;
74080;SDS011;62438;52.228;6.864;2023-03-23T03:44:16;8.27;;;3.08;;
74080;SDS011;62438;52.228;6.864;2023-03-23T03:46:16;8.05;;;2.70;;
74080;SDS011;62438;52.228;6.864;2023-03-23T03:48:17;7.72;;;2.92;;
74080;SDS011;62438;52.228;6.864;2023-03-23T03:50:17;8.15;;;2.80;;
74080;SDS011;62438;52.228;6.864;2023-03-23T03:52:18;8.32;;;2.90;;
74080;SDS011;62438;52.228;6.864;2023-03-23T03:54:18;7.97;;;3.38;;
74080;SDS011;62438;52.228;6.864;2023-03-23T03:56:18;7.35;;;2.60;;
74080;SDS011;62438;52.228;6.864;2023-03-23T03:58:19;9.13;;;2.85;;
74080;SDS011;62438;52.228;6.864;2023-03-23T04:00:20;9.10;;;3.13;;
74080;SDS011;62438;52.228;6.864;2023-03-23T04:02:22;7.45;;;2.95;;
74080;SDS011;62438;52.228;6.864;2023-03-23T04:04:22;7.20;;;2.83;;
74080;SDS011;62438;52.228;6.864;2023-03-23T04:06:23;7.45;;;2.85;;
74080;SDS011;62438;52.228;6.864;2023-03-23T04:08:27;7.00;;;2.60;;
74080;SDS011;62438;52.228;6.864;2023-03-23T04:10:28;8.07;;;3.05;;
74080;SDS011;62438;52.228;6.864;2023-03-23T04:12:29;7.80;;;2.80;;
74080;SDS011;62438;52.228;6.864;2023-03-23T04:14:30;7.50;;;3.45;;
74080;SDS011;62438;52.228;6.864;2023-03-23T04:16:30;7.95;;;3.00;;
74080;SDS011;62438;52.228;6.864;2023-03-23T04:18:30;8.38;;;2.97;;
74080;SDS011;62438;52.228;6.864;2023-03-23T04:20:34;8.50;;;2.95;;
74080;SDS011;62438;52.228;6.864;2023-03-23T04:22:35;10.85;;;3.17;;
74080;SDS011;62438;52.228;6.864;2023-03-23T04:24:36;7.88;;;2.78;;
74080;SDS011;62438;52.228;6.864;2023-03-23T04:26:36;9.40;;;2.90;;
74080;SDS011;62438;52.228;6.864;2023-03-23T04:28:39;8.73;;;3.10;;
74080;SDS011;62438;52.228;6.864;2023-03-23T04:30:41;9.93;;;3.20;;
74080;SDS011;62438;52.228;6.864;2023-03-23T04:32:42;8.40;;;3.03;;
74080;SDS011;62438;52.228;6.864;2023-03-23T04:34:43;7.03;;;2.80;;
74080;SDS011;62438;52.228;6.864;2023-03-23T04:36:44;7.93;;;3.03;;
74080;SDS011;62438;52.228;6.864;2023-03-23T04:38:47;7.93;;;2.83;;
74080;SDS011;62438;52.228;6.864;2023-03-23T04:40:50;8.43;;;3.35;;
74080;SDS011;62438;52.228;6.864;2023-03-23T04:42:52;8.15;;;3.38;;
74080;SDS011;62438;52.228;6.864;2023-03-23T04:44:57;9.43;;;3.30;;
74080;SDS011;62438;52.228;6.864;2023-03-23T04:47:00;9.25;;;3.33;;
74080;SDS011;62438;52.228;6.864;2023-03-23T04:49:01;11.30;;;3.60;;
74080;SDS011;62438;52.228;6.864;2023-03-23T04:51:02;8.35;;;2.97;;
74080;SDS011;62438;52.228;6.864;2023-03-23T04:53:04;7.50;;;3.08;;
74080;SDS011;62438;52.228;6.864;2023-03-23T04:55:07;8.35;;;2.85;;
74080;SDS011;62438;52.228;6.864;2023-03-23T04:59:09;13.35;;;4.25;;
74080;SDS011;62438;52.228;6.864;2023-03-23T05:01:10;9.70;;;3.58;;
74080;SDS011;62438;52.228;6.864;2023-03-23T05:03:17;7.40;;;2.90;;
74080;SDS011;62438;52.228;6.864;2023-03-23T05:05:19;7.72;;;3.00;;
74080;SDS011;62438;52.228;6.864;2023-03-23T05:07:20;8.18;;;3.55;;
74080;SDS011;62438;52.228;6.864;2023-03-23T05:09:20;7.65;;;3.15;;
74080;SDS011;62438;52.228;6.864;2023-03-23T05:11:21;7.13;;;2.60;;
74080;SDS011;62438;52.228;6.864;2023-03-23T05:13:21;7.28;;;2.60;;
74080;SDS011;62438;52.228;6.864;2023-03-23T05:15:22;7.47;;;3.13;;
74080;SDS011;62438;52.228;6.864;2023-03-23T05:17:22;8.02;;;2.83;;
74080;SDS011;62438;52.228;6.864;2023-03-23T05:19:24;8.20;;;2.78;;
74080;SDS011;62438;52.228;6.864;2023-03-23T05:21:24;8.75;;;3.03;;
74080;SDS011;62438;52.228;6.864;2023-03-23T05:23:26;7.38;;;3.10;;
74080;SDS011;62438;52.228;6.864;2023-03-23T05:25:26;7.30;;;2.85;;
74080;SDS011;62438;52.228;6.864;2023-03-23T05:27:26;7.22;;;2.90;;
74080;SDS011;62438;52.228;6.864;2023-03-23T05:29:27;7.30;;;2.85;;
74080;SDS011;62438;52.228;6.864;2023-03-23T05:31:30;7.53;;;2.92;;
74080;SDS011;62438;52.228;6.864;2023-03-23T05:33:30;8.05;;;3.20;;
74080;SDS011;62438;52.228;6.864;2023-03-23T05:35:31;8.05;;;3.35;;
74080;SDS011;62438;52.228;6.864;2023-03-23T05:37:31;7.57;;;2.72;;
74080;SDS011;62438;52.228;6.864;2023-03-23T05:39:32;7.50;;;3.20;;
74080;SDS011;62438;52.228;6.864;2023-03-23T05:41:39;9.02;;;2.90;;
74080;SDS011;62438;52.228;6.864;2023-03-23T05:43:40;8.27;;;2.50;;
74080;SDS011;62438;52.228;6.864;2023-03-23T05:45:46;7.30;;;3.28;;
74080;SDS011;62438;52.228;6.864;2023-03-23T05:47:47;7.35;;;2.75;;
74080;SDS011;62438;52.228;6.864;2023-03-23T05:49:48;8.15;;;2.70;;
74080;SDS011;62438;52.228;6.864;2023-03-23T05:51:48;7.47;;;2.70;;
74080;SDS011;62438;52.228;6.864;2023-03-23T05:53:49;8.55;;;2.58;;
74080;SDS011;62438;52.228;6.864;2023-03-23T05:55:50;8.25;;;2.70;;
74080;SDS011;62438;52.228;6.864;2023-03-23T05:57:51;7.45;;;2.67;;
74080;SDS011;62438;52.228;6.864;2023-03-23T05:59:51;8.02;;;3.10;;
74080;SDS011;62438;52.228;6.864;2023-03-23T06:01:52;9.00;;;3.00;;
74080;SDS011;62438;52.228;6.864;2023-03-23T06:03:57;9.52;;;3.15;;
74080;SDS011;62438;52.228;6.864;2023-03-23T06:05:58;9.25;;;3.03;;
74080;SDS011;62438;52.228;6.864;2023-03-23T06:07:59;7.68;;;2.67;;
74080;SDS011;62438;52.228;6.864;2023-03-23T06:10:04;10.20;;;2.75;;
74080;SDS011;62438;52.228;6.864;2023-03-23T06:12:07;8.15;;;2.33;;
74080;SDS011;62438;52.228;6.864;2023-03-23T06:14:09;8.48;;;2.42;;
74080;SDS011;62438;52.228;6.864;2023-03-23T06:16:13;10.98;;;2.80;;
74080;SDS011;62438;52.228;6.864;2023-03-23T06:18:16;10.10;;;2.53;;
74080;SDS011;62438;52.228;6.864;2023-03-23T06:20:16;9.93;;;3.03;;
74080;SDS011;62438;52.228;6.864;2023-03-23T06:22:17;5.75;;;1.95;;
74080;SDS011;62438;52.228;6.864;2023-03-23T06:24:18;9.57;;;2.45;;
74080;SDS011;62438;52.228;6.864;2023-03-23T06:26:18;9.30;;;2.25;;
74080;SDS011;62438;52.228;6.864;2023-03-23T06:28:20;9.93;;;2.63;;
74080;SDS011;62438;52.228;6.864;2023-03-23T06:30:20;8.00;;;2.22;;
74080;SDS011;62438;52.228;6.864;2023-03-23T06:32:21;9.73;;;2.20;;
74080;SDS011;62438;52.228;6.864;2023-03-23T06:34:25;9.15;;;2.55;;
74080;SDS011;62438;52.228;6.864;2023-03-23T06:36:26;8.95;;;2.70;;
74080;SDS011;62438;52.228;6.864;2023-03-23T06:38:27;7.63;;;2.17;;
74080;SDS011;62438;52.228;6.864;2023-03-23T06:40:28;8.15;;;1.75;;
74080;SDS011;62438;52.228;6.864;2023-03-23T06:42:28;7.45;;;2.22;;
74080;SDS011;62438;52.228;6.864;2023-03-23T06:44:32;8.77;;;2.50;;
74080;SDS011;62438;52.228;6.864;2023-03-23T06:46:33;12.18;;;2.40;;
74080;SDS011;62438;52.228;6.864;2023-03-23T06:48:33;8.10;;;2.50;;
74080;SDS011;62438;52.228;6.864;2023-03-23T06:50:34;6.30;;;1.90;;
74080;SDS011;62438;52.228;6.864;2023-03-23T06:52:34;7.47;;;2.20;;
74080;SDS011;62438;52.228;6.864;2023-03-23T06:54:35;6.22;;;1.90;;
74080;SDS011;62438;52.228;6.864;2023-03-23T06:56:35;8.23;;;1.77;;
74080;SDS011;62438;52.228;6.864;2023-03-23T06:58:36;6.80;;;2.00;;
74080;SDS011;62438;52.228;6.864;2023-03-23T07:00:36;7.60;;;2.03;;
74080;SDS011;62438;52.228;6.864;2023-03-23T07:02:38;7.38;;;2.30;;
74080;SDS011;62438;52.228;6.864;2023-03-23T07:06:46;5.45;;;1.80;;
74080;SDS011;62438;52.228;6.864;2023-03-23T07:08:47;9.45;;;2.17;;
74080;SDS011;62438;52.228;6.864;2023-03-23T07:10:47;11.68;;;2.22;;
74080;SDS011;62438;52.228;6.864;2023-03-23T07:12:52;6.45;;;2.15;;
74080;SDS011;62438;52.228;6.864;2023-03-23T07:14:52;8.90;;;1.95;;
74080;SDS011;62438;52.228;6.864;2023-03-23T07:16:53;7.88;;;2.03;;
74080;SDS011;62438;52.228;6.864;2023-03-23T07:18:53;10.18;;;1.92;;
74080;SDS011;62438;52.228;6.864;2023-03-23T07:20:54;6.38;;;1.80;;
74080;SDS011;62438;52.228;6.864;2023-03-23T07:22:55;10.43;;;2.20;;
74080;SDS011;62438;52.228;6.864;2023-03-23T07:24:55;8.68;;;2.70;;
74080;SDS011;62438;52.228;6.864;2023-03-23T07:26:56;7.28;;;2.17;;
74080;SDS011;62438;52.228;6.864;2023-03-23T07:28:57;7.60;;;2.10;;
74080;SDS011;62438;52.228;6.864;2023-03-23T07:30:57;5.90;;;1.70;;
74080;SDS011;62438;52.228;6.864;2023-03-23T07:32:58;7.13;;;1.80;;
74080;SDS011;62438;52.228;6.864;2023-03-23T07:34:58;7.18;;;1.80;;
74080;SDS011;62438;52.228;6.864;2023-03-23T07:36:58;8.75;;;2.20;;
74080;SDS011;62438;52.228;6.864;2023-03-23T07:39:00;9.68;;;2.13;;
74080;SDS011;62438;52.228;6.864;2023-03-23T07:41:00;9.70;;;2.03;;
74080;SDS011;62438;52.228;6.864;2023-03-23T07:43:02;8.65;;;2.15;;
74080;SDS011;62438;52.228;6.864;2023-03-23T07:45:03;8.40;;;2.05;;
74080;SDS011;62438;52.228;6.864;2023-03-23T07:47:04;8.07;;;1.88;;
74080;SDS011;62438;52.228;6.864;2023-03-23T07:49:04;11.00;;;2.15;;
74080;SDS011;62438;52.228;6.864;2023-03-23T07:51:05;8.65;;;2.03;;
74080;SDS011;62438;52.228;6.864;2023-03-23T07:53:07;10.13;;;1.95;;
74080;SDS011;62438;52.228;6.864;2023-03-23T07:55:08;10.45;;;2.22;;
74080;SDS011;62438;52.228;6.864;2023-03-23T07:57:17;12.50;;;2.20;;
74080;SDS011;62438;52.228;6.864;2023-03-23T07:59:17;8.55;;;2.00;;
74080;SDS011;62438;52.228;6.864;2023-03-23T08:01:18;8.60;;;2.33;;
74080;SDS011;62438;52.228;6.864;2023-03-23T08:03:18;8.05;;;1.80;;
74080;SDS011;62438;52.228;6.864;2023-03-23T08:05:19;7.05;;;1.70;;
74080;SDS011;62438;52.228;6.864;2023-03-23T08:07:20;7.47;;;1.85;;
74080;SDS011;62438;52.228;6.864;2023-03-23T08:09:21;6.78;;;1.85;;
74080;SDS011;62438;52.228;6.864;2023-03-23T08:11:21;9.77;;;1.60;;
74080;SDS011;62438;52.228;6.864;2023-03-23T08:13:22;8.20;;;1.67;;
74080;SDS011;62438;52.228;6.864;2023-03-23T08:15:23;7.97;;;2.08;;
74080;SDS011;62438;52.228;6.864;2023-03-23T08:17:23;10.80;;;2.67;;
74080;SDS011;62438;52.228;6.864;2023-03-23T08:19:24;7.35;;;2.00;;
74080;SDS011;62438;52.228;6.864;2023-03-23T08:21:24;8.48;;;2.00;;
74080;SDS011;62438;52.228;6.864;2023-03-23T08:23:26;6.40;;;1.85;;
74080;SDS011;62438;52.228;6.864;2023-03-23T08:25:27;7.47;;;1.90;;
74080;SDS011;62438;52.228;6.864;2023-03-23T08:27:33;11.05;;;2.78;;
74080;SDS011;62438;52.228;6.864;2023-03-23T08:29:37;10.23;;;1.58;;
74080;SDS011;62438;52.228;6.864;2023-03-23T08:31:38;9.80;;;1.77;;
74080;SDS011;62438;52.228;6.864;2023-03-23T08:33:39;10.90;;;2.85;;
74080;SDS011;62438;52.228;6.864;2023-03-23T08:35:41;6.80;;;1.65;;
74080;SDS011;62438;52.228;6.864;2023-03-23T08:37:44;6.97;;;1.50;;
74080;SDS011;62438;52.228;6.864;2023-03-23T08:39:45;7.25;;;1.70;;
74080;SDS011;62438;52.228;6.864;2023-03-23T08:41:45;6.72;;;1.33;;
74080;SDS011;62438;52.228;6.864;2023-03-23T08:43:46;8.27;;;1.38;;
74080;SDS011;62438;52.228;6.864;2023-03-23T08:45:46;5.93;;;1.27;;
74080;SDS011;62438;52.228;6.864;2023-03-23T08:47:48;4.28;;;1.00;;
74080;SDS011;62438;52.228;6.864;2023-03-23T08:49:51;5.85;;;0.88;;
74080;SDS011;62438;52.228;6.864;2023-03-23T08:51:53;4.25;;;0.77;;
74080;SDS011;62438;52.228;6.864;2023-03-23T08:53:54;5.38;;;0.90;;
74080;SDS011;62438;52.228;6.864;2023-03-23T08:55:54;5.32;;;0.93;;
74080;SDS011;62438;52.228;6.864;2023-03-23T08:57:55;3.53;;;0.63;;
74080;SDS011;62438;52.228;6.864;2023-03-23T08:59:56;6.68;;;0.82;;
74080;SDS011;62438;52.228;6.864;2023-03-23T09:02:09;5.68;;;1.02;;
74080;SDS011;62438;52.228;6.864;2023-03-23T09:04:11;5.85;;;1.05;;
74080;SDS011;62438;52.228;6.864;2023-03-23T09:06:12;5.90;;;0.90;;
74080;SDS011;62438;52.228;6.864;2023-03-23T09:08:12;4.38;;;0.98;;
74080;SDS011;62438;52.228;6.864;2023-03-23T09:10:13;5.28;;;1.05;;
74080;SDS011;62438;52.228;6.864;2023-03-23T09:12:14;3.70;;;0.80;;
74080;SDS011;62438;52.228;6.864;2023-03-23T09:14:15;4.00;;;0.80;;
74080;SDS011;62438;52.228;6.864;2023-03-23T09:16:15;3.65;;;0.85;;
74080;SDS011;62438;52.228;6.864;2023-03-23T09:18:16;7.22;;;1.00;;
74080;SDS011;62438;52.228;6.864;2023-03-23T09:20:18;5.88;;;1.02;;
74080;SDS011;62438;52.228;6.864;2023-03-23T09:22:20;6.18;;;1.45;;
74080;SDS011;62438;52.228;6.864;2023-03-23T09:24:23;7.45;;;1.75;;
74080;SDS011;62438;52.228;6.864;2023-03-23T09:26:24;5.78;;;1.10;;
74080;SDS011;62438;52.228;6.864;2023-03-23T09:28:26;8.00;;;1.20;;
74080;SDS011;62438;52.228;6.864;2023-03-23T09:30:28;5.90;;;1.35;;
74080;SDS011;62438;52.228;6.864;2023-03-23T09:32:31;10.38;;;1.42;;
74080;SDS011;62438;52.228;6.864;2023-03-23T09:36:36;4.35;;;1.13;;
74080;SDS011;62438;52.228;6.864;2023-03-23T09:38:38;7.00;;;1.40;;
74080;SDS011;62438;52.228;6.864;2023-03-23T09:48:00;7.35;;;1.63;;
74080;SDS011;62438;52.228;6.864;2023-03-23T09:50:27;5.15;;;1.42;;
74080;SDS011;62438;52.228;6.864;2023-03-23T09:52:41;8.25;;;1.50;;
74080;SDS011;62438;52.228;6.864;2023-03-23T09:56:45;7.15;;;1.50;;
74080;SDS011;62438;52.228;6.864;2023-03-23T09:58:50;8.63;;;1.98;;
74080;SDS011;62438;52.228;6.864;2023-03-23T10:01:02;4.55;;;1.48;;
74080;SDS011;62438;52.228;6.864;2023-03-23T10:03:22;8.57;;;1.60;;
74080;SDS011;62438;52.228;6.864;2023-03-23T10:05:35;7.30;;;1.60;;
74080;SDS011;62438;52.228;6.864;2023-03-23T10:07:46;9.70;;;1.90;;
74080;SDS011;62438;52.228;6.864;2023-03-23T10:09:47;10.60;;;2.60;;
74080;SDS011;62438;52.228;6.864;2023-03-23T10:11:56;7.72;;;1.42;;
74080;SDS011;62438;52.228;6.864;2023-03-23T10:16:25;10.80;;;2.45;;
74080;SDS011;62438;52.228;6.864;2023-03-23T10:23:05;10.70;;;2.05;;
74080;SDS011;62438;52.228;6.864;2023-03-23T10:25:26;7.78;;;1.75;;
74080;SDS011;62438;52.228;6.864;2023-03-23T10:29:50;5.53;;;1.00;;
74080;SDS011;62438;52.228;6.864;2023-03-23T10:34:11;6.47;;;1.10;;
74080;SDS011;62438;52.228;6.864;2023-03-23T10:36:26;5.78;;;1.10;;
74080;SDS011;62438;52.228;6.864;2023-03-23T10:38:34;4.13;;;0.73;;
74080;SDS011;62438;52.228;6.864;2023-03-23T10:43:02;5.78;;;0.90;;
74080;SDS011;62438;52.228;6.864;2023-03-23T10:47:20;4.45;;;0.90;;
74080;SDS011;62438;52.228;6.864;2023-03-23T10:49:26;7.15;;;1.42;;
74080;SDS011;62438;52.228;6.864;2023-03-23T10:52:05;4.70;;;0.82;;
74080;SDS011;62438;52.228;6.864;2023-03-23T10:54:31;5.40;;;1.10;;
74080;SDS011;62438;52.228;6.864;2023-03-23T10:58:40;6.13;;;1.00;;
74080;SDS011;62438;52.228;6.864;2023-03-23T11:00:42;8.60;;;1.88;;
74080;SDS011;62438;52.228;6.864;2023-03-23T11:02:46;6.15;;;0.93;;
74080;SDS011;62438;52.228;6.864;2023-03-23T11:04:59;6.20;;;1.00;;
74080;SDS011;62438;52.228;6.864;2023-03-23T11:07:01;6.93;;;1.02;;
74080;SDS011;62438;52.228;6.864;2023-03-23T18:18:25;11.05;;;2.63;;
74080;SDS011;62438;52.228;6.864;2023-03-23T18:20:25;11.82;;;3.30;;
74080;SDS011;62438;52.228;6.864;2023-03-23T18:22:26;7.50;;;2.10;;
74080;SDS011;62438;52.228;6.864;2023-03-23T18:24:30;9.85;;;2.42;;
74080;SDS011;62438;52.228;6.864;2023-03-23T18:26:33;10.57;;;2.80;;
74080;SDS011;62438;52.228;6.864;2023-03-23T18:28:34;9.60;;;2.53;;
74080;SDS011;62438;52.228;6.864;2023-03-23T18:30:37;7.47;;;2.45;;
74080;SDS011;62438;52.228;6.864;2023-03-23T18:32:38;9.20;;;2.80;;
74080;SDS011;62438;52.228;6.864;2023-03-23T18:34:40;8.52;;;2.45;;
74080;SDS011;62438;52.228;6.864;2023-03-23T18:36:43;8.13;;;2.28;;
74080;SDS011;62438;52.228;6.864;2023-03-23T18:38:44;8.18;;;2.63;;
74080;SDS011;62438;52.228;6.864;2023-03-23T18:40:45;8.57;;;2.50;;
74080;SDS011;62438;52.228;6.864;2023-03-23T18:43:03;11.25;;;2.90;;
74080;SDS011;62438;52.228;6.864;2023-03-23T18:45:09;8.48;;;2.30;;
74080;SDS011;62438;52.228;6.864;2023-03-23T18:47:09;8.50;;;2.53;;
74080;SDS011;62438;52.228;6.864;2023-03-23T18:49:10;7.72;;;3.10;;
74080;SDS011;62438;52.228;6.864;2023-03-23T18:51:13;9.65;;;2.80;;
74080;SDS011;62438;52.228;6.864;2023-03-23T18:53:14;10.25;;;2.60;;
74080;SDS011;62438;52.228;6.864;2023-03-23T18:55:32;9.25;;;3.00;;
74080;SDS011;62438;52.228;6.864;2023-03-23T18:57:37;8.52;;;2.40;;
74080;SDS011;62438;52.228;6.864;2023-03-23T18:59:48;9.88;;;2.95;;
74080;SDS011;62438;52.228;6.864;2023-03-23T19:01:49;12.15;;;2.90;;
74080;SDS011;62438;52.228;6.864;2023-03-23T19:03:53;10.68;;;2.72;;
74080;SDS011;62438;52.228;6.864;2023-03-23T19:05:56;11.98;;;3.40;;
74080;SDS011;62438;52.228;6.864;2023-03-23T19:08:01;9.10;;;2.72;;
74080;SDS011;62438;52.228;6.864;2023-03-23T19:10:05;11.35;;;3.17;;
74080;SDS011;62438;52.228;6.864;2023-03-23T19:12:09;9.65;;;3.30;;
74080;SDS011;62438;52.228;6.864;2023-03-23T19:14:11;14.13;;;3.13;;
74080;SDS011;62438;52.228;6.864;2023-03-23T19:16:23;9.07;;;2.70;;
74080;SDS011;62438;52.228;6.864;2023-03-23T19:18:23;11.25;;;3.03;;
74080;SDS011;62438;52.228;6.864;2023-03-23T19:20:24;11.93;;;3.25;;
74080;SDS011;62438;52.228;6.864;2023-03-23T19:22:31;11.02;;;2.70;;
74080;SDS011;62438;52.228;6.864;2023-03-23T19:24:32;12.50;;;2.70;;
74080;SDS011;62438;52.228;6.864;2023-03-23T19:26:33;10.00;;;2.83;;
74080;SDS011;62438;52.228;6.864;2023-03-23T19:28:39;11.20;;;3.00;;
74080;SDS011;62438;52.228;6.864;2023-03-23T19:30:45;11.10;;;2.90;;
74080;SDS011;62438;52.228;6.864;2023-03-23T19:32:46;10.98;;;2.90;;
74080;SDS011;62438;52.228;6.864;2023-03-23T19:34:49;10.90;;;3.13;;
74080;SDS011;62438;52.228;6.864;2023-03-23T19:36:50;10.93;;;3.50;;
74080;SDS011;62438;52.228;6.864;2023-03-23T19:38:51;12.93;;;3.80;;
74080;SDS011;62438;52.228;6.864;2023-03-23T19:40:56;17.25;;;4.00;;
74080;SDS011;62438;52.228;6.864;2023-03-23T19:43:00;14.57;;;4.68;;
74080;SDS011;62438;52.228;6.864;2023-03-23T19:45:01;13.90;;;4.18;;
74080;SDS011;62438;52.228;6.864;2023-03-23T19:47:02;10.15;;;3.40;;
74080;SDS011;62438;52.228;6.864;2023-03-23T19:49:05;9.38;;;2.80;;
74080;SDS011;62438;52.228;6.864;2023-03-23T19:51:10;12.55;;;2.60;;
74080;SDS011;62438;52.228;6.864;2023-03-23T19:53:20;8.95;;;2.67;;
74080;SDS011;62438;52.228;6.864;2023-03-23T19:55:23;10.27;;;2.70;;
74080;SDS011;62438;52.228;6.864;2023-03-23T19:57:23;10.02;;;2.30;;
74080;SDS011;62438;52.228;6.864;2023-03-23T19:59:26;11.02;;;2.65;;
74080;SDS011;62438;52.228;6.864;2023-03-23T20:01:30;10.88;;;2.30;;
74080;SDS011;62438;52.228;6.864;2023-03-23T20:03:33;11.23;;;2.30;;
74080;SDS011;62438;52.228;6.864;2023-03-23T20:05:35;7.03;;;2.10;;
74080;SDS011;62438;52.228;6.864;2023-03-23T20:07:36;9.65;;;2.30;;
74080;SDS011;62438;52.228;6.864;2023-03-23T20:09:37;9.32;;;2.35;;
74080;SDS011;62438;52.228;6.864;2023-03-23T20:11:49;13.02;;;2.95;;
74080;SDS011;62438;52.228;6.864;2023-03-23T20:13:53;10.38;;;2.17;;
74080;SDS011;62438;52.228;6.864;2023-03-23T20:16:34;9.63;;;2.40;;
74080;SDS011;62438;52.228;6.864;2023-03-23T20:18:38;13.45;;;2.40;;
74080;SDS011;62438;52.228;6.864;2023-03-23T20:21:03;14.32;;;2.28;;
74080;SDS011;62438;52.228;6.864;2023-03-23T20:23:10;10.30;;;2.97;;
74080;SDS011;62438;52.228;6.864;2023-03-23T20:25:11;12.02;;;2.35;;
74080;SDS011;62438;52.228;6.864;2023-03-23T20:27:13;7.95;;;2.53;;
74080;SDS011;62438;52.228;6.864;2023-03-23T20:29:15;7.22;;;1.80;;
74080;SDS011;62438;52.228;6.864;2023-03-23T20:31:17;10.10;;;2.38;;